Racine, Wisconsin
Current Conditions -  °F | °C
As of 4:33 AM on Saturday 22 Nov 2014 (Local Time) from KRAC Reporting Station
Freezing Rain Freezing Rain  
Wind Chill: -5°   Ceiling: 6000
Heat Index:   Visibility: 5mi
Dew Point: -1°   Wind: 15mph
Humidity: 89%   Direction: 220°SW
Pressure: 30.02"   Gusts: 22mph
Location:  42.73°N, 87.79°W
Report Text: KRAC 221033Z AUTO 22013G19KT 5SM -FZRA BR BKN060 OVC075 01/M01 A3002 RMK AO2 RAE06FZRAB06 P0009 I1002 T00061011
Loading
Personal Weather Stations






























Interactive Weather Map New forecast layout! Learn more

10-Day Weather Forecast

Advertisements
Track Severe Weather on mobile